createdAt,value
2023-02-05T00:00:17.552Z,102516.91
2023-02-05T00:02:44.964Z,102506.38
2023-02-05T00:05:13.661Z,102494.13
2023-02-05T00:07:41.092Z,102494.13
2023-02-05T00:10:08.836Z,102495.00
2023-02-05T00:12:36.541Z,102450.25
2023-02-05T00:15:04.061Z,102497.63
2023-02-05T00:17:31.473Z,102495.88
2023-02-05T00:19:58.864Z,102490.59
2023-02-05T00:22:27.581Z,102485.34
2023-02-05T00:24:54.993Z,102478.34
2023-02-05T00:27:22.367Z,102476.59
2023-02-05T00:29:49.771Z,102476.59
2023-02-05T00:32:17.148Z,102481.88
2023-02-05T00:34:44.536Z,102480.09
2023-02-05T00:37:12.013Z,102432.72
2023-02-05T00:39:40.982Z,102472.19
2023-02-05T00:42:08.361Z,102456.41
2023-02-05T00:44:35.892Z,102449.41
2023-02-05T00:47:03.314Z,102445.91
2023-02-05T00:49:30.705Z,102445.91
2023-02-05T00:51:58.123Z,102441.53
2023-02-05T00:54:25.514Z,102443.25
2023-02-05T00:56:54.216Z,102443.25
2023-02-05T00:59:22.686Z,102445.91
2023-02-05T01:01:51.304Z,102416.94
2023-02-05T01:04:18.709Z,102438.00
2023-02-05T01:06:46.105Z,102426.63
2023-02-05T01:09:13.553Z,102429.25
2023-02-05T01:11:41.004Z,102430.09
2023-02-05T01:14:09.743Z,102429.25
2023-02-05T01:16:37.219Z,102416.09
2023-02-05T01:19:04.588Z,102416.94
2023-02-05T01:21:32.062Z,102413.47
2023-02-05T01:24:01.509Z,102401.16
2023-02-05T01:26:28.920Z,102388.00
2023-02-05T01:28:56.280Z,102393.25
2023-02-05T01:31:25.637Z,102395.91
2023-02-05T01:33:53.164Z,102394.16
2023-02-05T01:36:20.573Z,102391.53
2023-02-05T01:38:48.781Z,102388.88
2023-02-05T01:41:16.171Z,102398.53
2023-02-05T01:43:43.579Z,102391.50
2023-02-05T01:46:25.260Z,102310.88
2023-02-05T01:48:55.340Z,102378.34
2023-02-05T01:51:22.729Z,102358.19
2023-02-05T01:53:50.108Z,102358.19
2023-02-05T01:56:18.784Z,102279.31
2023-02-05T01:58:47.913Z,102363.44
2023-02-05T02:01:15.335Z,102359.03
2023-02-05T02:03:44.065Z,102342.41
2023-02-05T02:06:11.455Z,102353.78
2023-02-05T02:08:38.859Z,102360.81
2023-02-05T02:11:06.920Z,102353.78
2023-02-05T02:13:35.233Z,102269.66
2023-02-05T02:16:03.082Z,102354.66
2023-02-05T02:18:30.526Z,102296.81
2023-02-05T02:21:45.568Z,102342.38
2023-02-05T02:24:34.592Z,102345.00
2023-02-05T02:27:10.562Z,102345.84
2023-02-05T02:29:40.706Z,102293.25
2023-02-05T02:32:10.297Z,102332.69
2023-02-05T02:34:38.956Z,102322.16
2023-02-05T02:37:07.840Z,102286.25
2023-02-05T02:39:38.727Z,102224.06
2023-02-05T02:42:08.575Z,102314.25
2023-02-05T02:44:40.444Z,102317.78
2023-02-05T02:47:10.866Z,102311.59
2023-02-05T02:49:39.835Z,102238.03
2023-02-05T02:52:08.187Z,102324.75
2023-02-05T02:54:35.860Z,102253.81
2023-02-05T02:57:03.486Z,102330.03
2023-02-05T02:59:31.030Z,102325.66
2023-02-05T03:02:01.051Z,102226.69
2023-02-05T03:04:29.714Z,102264.34
2023-02-05T03:07:06.896Z,102330.03
2023-02-05T03:09:36.428Z,102327.41
2023-02-05T03:12:04.073Z,102314.22
2023-02-05T03:14:31.621Z,102317.75
2023-02-05T03:17:00.451Z,102236.28
2023-02-05T03:19:27.864Z,102322.13
2023-02-05T03:21:56.296Z,102323.91
2023-02-05T03:24:23.680Z,102323.91
2023-02-05T03:26:51.086Z,102328.28
2023-02-05T03:29:22.264Z,102289.72
2023-02-05T03:31:52.657Z,102321.25
2023-02-05T03:34:29.231Z,102323.00
2023-02-05T03:37:01.593Z,102303.72
2023-02-05T03:39:33.032Z,102308.09
2023-02-05T03:42:07.294Z,102282.66
2023-02-05T03:44:52.429Z,102292.28
2023-02-05T03:47:22.570Z,102289.66
2023-02-05T03:49:52.552Z,102294.03
2023-02-05T03:52:21.416Z,102291.41
2023-02-05T03:54:51.918Z,102280.88
2023-02-05T03:57:21.416Z,102279.97
2023-02-05T03:59:48.796Z,102261.59
2023-02-05T04:02:16.222Z,102287.88
2023-02-05T04:04:43.634Z,102277.34
2023-02-05T04:07:12.360Z,102239.69
2023-02-05T04:09:39.801Z,102288.75
2023-02-05T04:12:07.528Z,102285.25
2023-02-05T04:14:34.906Z,102281.72
2023-02-05T04:17:03.016Z,102260.72
2023-02-05T04:19:30.400Z,102288.75
2023-02-05T04:21:57.796Z,102295.78
2023-02-05T04:24:26.544Z,102304.53
2023-02-05T04:26:53.938Z,102306.28
2023-02-05T04:29:21.330Z,102299.28
2023-02-05T04:31:48.785Z,102306.28
2023-02-05T04:34:16.211Z,102296.63
2023-02-05T04:36:44.098Z,102280.84
2023-02-05T04:39:11.508Z,102293.09
2023-02-05T04:41:40.287Z,102293.09
2023-02-05T04:44:07.705Z,102275.56
2023-02-05T04:46:35.151Z,102280.81
2023-02-05T04:49:02.527Z,102272.91
2023-02-05T04:51:29.982Z,102268.53
2023-02-05T04:53:57.436Z,102265.88
2023-02-05T04:56:24.828Z,102272.00
2023-02-05T04:58:53.504Z,102270.28
2023-02-05T05:01:22.217Z,102274.66
2023-02-05T05:03:49.978Z,102271.16
2023-02-05T05:06:17.941Z,102276.41
2023-02-05T05:08:45.421Z,102279.91
2023-02-05T05:11:13.931Z,102278.16
2023-02-05T05:13:41.466Z,102243.09
2023-02-05T05:16:10.715Z,102284.28
2023-02-05T05:18:38.201Z,102289.56
2023-02-05T05:21:06.193Z,102253.63
2023-02-05T05:23:33.723Z,102286.03
2023-02-05T05:26:03.905Z,102273.78
2023-02-05T05:28:33.751Z,102278.13
2023-02-05T05:31:01.273Z,102277.25
2023-02-05T05:33:30.042Z,102270.22
2023-02-05T05:35:57.438Z,102272.88
2023-02-05T05:38:24.885Z,102276.34
2023-02-05T05:41:10.011Z,102268.44
2023-02-05T05:43:49.683Z,102264.06
2023-02-05T05:46:21.827Z,102256.16
2023-02-05T05:48:51.618Z,102238.59
2023-02-05T05:51:19.056Z,102251.75
2023-02-05T05:53:46.849Z,102250.88
2023-02-05T05:56:14.356Z,102225.47
2023-02-05T05:58:41.785Z,102228.91
2023-02-05T06:01:09.194Z,102181.66
2023-02-05T06:03:36.754Z,102175.50
2023-02-05T06:06:06.517Z,102148.38
2023-02-05T06:08:33.944Z,102195.66
2023-02-05T06:11:01.337Z,102224.53
2023-02-05T06:13:28.781Z,102222.75
2023-02-05T06:15:56.210Z,102218.34
2023-02-05T06:18:24.028Z,102204.31
2023-02-05T06:20:51.486Z,102204.31
2023-02-05T06:23:20.250Z,102191.19
2023-02-05T06:25:47.634Z,102218.34
2023-02-05T06:28:15.076Z,102213.13
2023-02-05T06:30:42.488Z,102220.97
2023-02-05T06:33:11.429Z,102216.59
2023-02-05T06:35:38.839Z,102213.94
2023-02-05T06:38:06.274Z,102208.69
2023-02-05T06:40:35.001Z,102203.41
2023-02-05T06:43:02.957Z,102205.16
2023-02-05T06:45:30.444Z,102213.03
2023-02-05T06:47:58.275Z,102213.03
2023-02-05T06:50:25.726Z,102220.09
2023-02-05T06:52:53.134Z,102211.28
2023-02-05T06:55:20.781Z,102214.81
2023-02-05T06:57:49.557Z,102201.63
2023-02-05T07:00:17.357Z,102171.03
2023-02-05T07:02:44.839Z,102197.22
2023-02-05T07:05:12.312Z,102194.59
2023-02-05T07:07:39.709Z,102206.91
2023-02-05T07:10:07.232Z,102206.91
2023-02-05T07:12:34.626Z,102200.75
2023-02-05T07:15:03.318Z,102199.84
2023-02-05T07:17:30.723Z,102188.47
2023-02-05T07:19:58.649Z,102195.47
2023-02-05T07:22:26.120Z,102193.72
2023-02-05T07:24:53.494Z,102190.19
2023-02-05T07:27:20.904Z,102186.66
2023-02-05T07:29:48.340Z,102189.31
2023-02-05T07:32:17.041Z,102184.03
2023-02-05T07:34:44.694Z,102184.03
2023-02-05T07:37:12.200Z,102177.91
2023-02-05T07:39:39.654Z,102178.75
2023-02-05T07:42:07.110Z,102180.53
2023-02-05T07:44:34.474Z,102182.28
2023-02-05T07:47:01.865Z,102189.28
2023-02-05T07:49:30.647Z,102178.75
2023-02-05T07:51:58.079Z,102184.00
2023-02-05T07:54:25.600Z,102180.50
2023-02-05T07:56:53.005Z,102185.78
2023-02-05T07:59:20.399Z,102175.25
2023-02-05T08:01:47.784Z,102176.97
2023-02-05T08:04:15.213Z,102181.38
2023-02-05T08:06:43.976Z,102175.25
2023-02-05T08:09:11.486Z,102174.34
2023-02-05T08:11:38.891Z,102173.44
2023-02-05T08:14:06.301Z,102177.84
2023-02-05T08:16:33.762Z,102180.50
2023-02-05T08:19:01.240Z,102174.31
2023-02-05T08:21:28.644Z,102170.81
2023-02-05T08:23:58.434Z,102174.31
2023-02-05T08:26:25.809Z,102175.22
2023-02-05T08:28:53.197Z,102175.22
2023-02-05T08:31:20.634Z,102169.94
2023-02-05T08:33:50.580Z,102177.84
2023-02-05T08:36:17.963Z,102179.59
2023-02-05T08:38:45.370Z,102175.19
2023-02-05T08:41:14.176Z,102124.47
2023-02-05T08:43:42.471Z,102176.06
2023-02-05T08:46:09.998Z,102178.69
2023-02-05T08:48:37.627Z,102176.03
2023-02-05T08:51:05.418Z,102176.03
2023-02-05T08:53:32.901Z,102140.22
2023-02-05T08:56:01.325Z,102140.22
2023-02-05T08:58:30.024Z,102178.66
2023-02-05T09:01:01.220Z,102172.53
2023-02-05T09:03:28.644Z,102169.03
2023-02-05T09:05:56.015Z,102164.63
2023-02-05T09:08:23.403Z,102160.19
2023-02-05T09:10:50.896Z,102161.97
2023-02-05T09:13:18.271Z,102152.31
2023-02-05T09:15:48.621Z,102141.81
2023-02-05T09:18:16.147Z,102169.84
2023-02-05T09:20:44.022Z,102159.31
2023-02-05T09:23:11.744Z,102162.78
2023-02-05T09:25:39.287Z,102155.78
2023-02-05T09:28:08.030Z,102152.25
2023-02-05T09:30:36.099Z,102141.69
2023-02-05T09:33:04.950Z,102150.50
2023-02-05T09:35:32.777Z,102146.13
2023-02-05T09:38:02.235Z,102146.13
2023-02-05T09:40:31.781Z,102120.72
2023-02-05T09:43:02.103Z,102143.44
2023-02-05T09:45:38.344Z,102141.66
2023-02-05T09:48:15.305Z,102136.38
2023-02-05T09:50:42.689Z,102137.28
2023-02-05T09:53:12.801Z,102139.00
2023-02-05T09:55:40.837Z,102140.78
2023-02-05T09:58:09.300Z,102113.72
2023-02-05T10:00:40.350Z,102142.53
2023-02-05T10:03:11.781Z,102097.97
2023-02-05T10:05:41.255Z,102153.03
2023-02-05T10:08:11.088Z,102153.03
2023-02-05T10:10:40.621Z,102154.78
2023-02-05T10:13:27.674Z,102146.84
2023-02-05T10:16:30.571Z,102148.63
2023-02-05T10:19:09.544Z,102155.63
2023-02-05T10:21:46.022Z,102155.59
2023-02-05T10:24:21.334Z,102142.50
2023-02-05T10:26:50.520Z,102129.38
2023-02-05T10:29:25.828Z,102153.00
2023-02-05T10:31:59.841Z,102161.78
2023-02-05T10:34:41.183Z,102149.44
2023-02-05T10:37:13.575Z,102157.31
2023-02-05T10:39:40.964Z,102147.66
2023-02-05T10:42:18.378Z,102152.03
2023-02-05T10:44:46.219Z,102148.53
2023-02-05T10:47:14.902Z,102159.06
2023-02-05T10:49:46.948Z,102152.00
2023-02-05T10:52:14.719Z,102147.69
2023-02-05T10:54:42.187Z,102162.53
2023-02-05T10:57:13.556Z,102110.97
2023-02-05T10:59:47.531Z,102160.78
2023-02-05T11:02:14.908Z,102166.06
2023-02-05T11:04:45.057Z,102166.03
2023-02-05T11:07:12.322Z,102164.31
2023-02-05T11:09:39.733Z,102158.16
2023-02-05T11:12:15.633Z,102125.81
2023-02-05T11:14:45.604Z,102155.47
2023-02-05T11:17:21.452Z,102140.66
2023-02-05T11:19:56.609Z,102145.91
2023-02-05T11:22:28.206Z,102140.66
2023-02-05T11:25:05.744Z,102177.41
2023-02-05T11:27:33.316Z,102181.81
2023-02-05T11:30:28.658Z,102173.00
2023-02-05T11:33:25.555Z,102174.78
2023-02-05T11:35:55.514Z,102151.19
2023-02-05T11:38:29.663Z,102180.09
2023-02-05T11:40:57.377Z,102165.06
2023-02-05T11:43:28.052Z,102177.38
2023-02-05T11:45:56.676Z,102140.66
2023-02-05T11:48:29.686Z,102180.00
2023-02-05T11:50:58.375Z,102181.72
2023-02-05T11:53:25.824Z,102179.09
2023-02-05T11:55:54.259Z,102154.63
2023-02-05T11:58:34.901Z,102191.38
2023-02-05T12:01:04.462Z,102148.56
2023-02-05T12:03:32.570Z,102143.34
2023-02-05T12:06:05.958Z,102208.06
2023-02-05T12:08:37.299Z,102201.91
2023-02-05T12:11:15.703Z,102208.03
2023-02-05T12:13:49.116Z,102204.53
2023-02-05T12:16:19.771Z,102210.69
2023-02-05T12:18:51.184Z,102203.69
2023-02-05T12:21:24.181Z,102208.91
2023-02-05T12:24:07.100Z,102171.34
2023-02-05T12:26:35.083Z,102215.94
2023-02-05T12:29:15.022Z,102212.41
2023-02-05T12:31:50.498Z,102211.56
2023-02-05T12:34:24.390Z,102204.50
2023-02-05T12:37:17.760Z,102201.84
2023-02-05T12:39:46.822Z,102199.19
2023-02-05T12:42:24.685Z,102211.53
2023-02-05T12:44:59.596Z,102177.38
2023-02-05T12:47:42.154Z,102178.19
2023-02-05T12:50:17.448Z,102171.13
2023-02-05T12:52:54.459Z,102145.75
2023-02-05T12:55:28.268Z,102168.41
2023-02-05T12:57:58.352Z,102173.69
2023-02-05T13:00:27.680Z,102175.44
2023-02-05T13:02:58.621Z,102186.88
2023-02-05T13:05:27.788Z,102186.88
2023-02-05T13:07:58.134Z,102193.88
2023-02-05T13:10:28.240Z,102188.63
2023-02-05T13:12:55.988Z,102194.75
2023-02-05T13:15:24.609Z,102188.59
2023-02-05T13:17:56.228Z,102197.38
2023-02-05T13:20:45.934Z,102200.00
2023-02-05T13:23:32.780Z,102194.75
2023-02-05T13:26:17.723Z,102186.84
2023-02-05T13:28:45.656Z,102200.94
2023-02-05T13:31:22.213Z,102198.28
2023-02-05T13:33:49.768Z,102215.88
2023-02-05T13:36:28.960Z,102223.78
2023-02-05T13:39:03.774Z,102210.75
2023-02-05T13:41:42.954Z,102212.44
2023-02-05T13:44:32.556Z,102234.31
2023-02-05T13:47:19.743Z,102238.72
2023-02-05T13:50:05.735Z,102224.72
2023-02-05T13:52:54.498Z,102196.72
2023-02-05T13:55:49.220Z,102196.75
2023-02-05T13:58:20.457Z,102237.03
2023-02-05T14:00:53.327Z,102232.78
2023-02-05T14:03:26.573Z,102234.53
2023-02-05T14:05:53.969Z,102263.38
2023-02-05T14:08:22.851Z,102268.69
2023-02-05T14:10:58.845Z,102245.03
2023-02-05T14:13:28.435Z,102266.00
2023-02-05T14:15:57.266Z,102217.03
2023-02-05T14:18:46.927Z,102264.22
2023-02-05T14:21:47.631Z,102265.97
2023-02-05T14:24:41.340Z,102278.31
2023-02-05T14:27:46.754Z,102284.47
2023-02-05T14:30:37.395Z,102291.50
2023-02-05T14:33:05.309Z,102295.03
2023-02-05T14:35:33.783Z,102272.34
2023-02-05T14:38:02.387Z,102309.13
2023-02-05T14:40:31.618Z,102298.59
2023-02-05T14:43:09.898Z,102307.31
2023-02-05T14:45:43.429Z,102315.22
2023-02-05T14:48:18.998Z,102310.81
2023-02-05T14:50:46.390Z,102304.66
2023-02-05T14:53:22.947Z,102313.44
2023-02-05T14:55:55.439Z,102311.72
2023-02-05T14:58:25.120Z,102318.72
2023-02-05T15:00:53.032Z,102324.91
2023-02-05T15:03:28.993Z,102317.84
2023-02-05T15:05:59.363Z,102321.38
2023-02-05T15:08:40.139Z,102309.06
2023-02-05T15:13:30.385Z,102313.47
2023-02-05T15:16:19.602Z,102324.88
2023-02-05T15:18:47.939Z,102295.16
2023-02-05T15:21:17.555Z,102336.28
2023-02-05T15:23:46.164Z,102350.38
2023-02-05T15:26:20.806Z,102353.88
2023-02-05T15:28:53.483Z,102359.16
2023-02-05T15:31:26.969Z,102360.94
2023-02-05T15:33:58.818Z,102308.38
2023-02-05T15:36:31.147Z,102373.22
2023-02-05T15:39:06.675Z,102361.00
2023-02-05T15:41:35.915Z,102389.03
2023-02-05T15:44:04.716Z,102387.28
2023-02-05T15:46:32.617Z,102385.53
2023-02-05T15:49:00.215Z,102384.66
2023-02-05T15:51:29.750Z,102388.19
2023-02-05T15:53:57.620Z,102360.22
2023-02-05T15:56:26.268Z,102395.22
2023-02-05T15:58:55.320Z,102337.41
2023-02-05T16:01:25.291Z,102358.44
2023-02-05T16:03:52.677Z,102396.94
2023-02-05T16:06:20.533Z,102385.56
2023-02-05T16:08:48.075Z,102385.56
2023-02-05T16:11:27.085Z,102396.09
2023-02-05T16:14:13.472Z,102395.22
2023-02-05T16:16:43.310Z,102396.09
2023-02-05T16:19:15.159Z,102407.50
2023-02-05T16:21:43.963Z,102382.16
2023-02-05T16:24:17.658Z,102410.16
2023-02-05T16:26:46.774Z,102411.06
2023-02-05T16:29:25.028Z,102423.34
2023-02-05T16:32:02.412Z,102433.91
2023-02-05T16:34:29.772Z,102437.44
2023-02-05T16:37:02.728Z,102464.72
2023-02-05T16:39:32.074Z,102362.09
2023-02-05T16:42:04.029Z,102433.06
2023-02-05T16:44:32.603Z,102435.69
2023-02-05T16:47:12.952Z,102436.56
2023-02-05T16:49:40.438Z,102442.72
2023-02-05T16:52:26.292Z,102455.91
2023-02-05T16:54:53.670Z,102462.06
2023-02-05T16:57:25.684Z,102464.72
2023-02-05T16:59:54.214Z,102456.81
2023-02-05T17:02:29.228Z,102457.66
2023-02-05T17:04:57.627Z,102458.53
2023-02-05T17:07:25.244Z,102468.22
2023-02-05T17:09:52.620Z,102471.75
2023-02-05T17:12:41.830Z,102471.75
2023-02-05T17:15:32.988Z,102455.97
2023-02-05T17:18:06.172Z,102406.00
2023-02-05T17:20:34.188Z,102427.94
2023-02-05T17:23:12.596Z,102476.13
2023-02-05T17:25:41.120Z,102398.16
2023-02-05T17:28:10.978Z,102482.31
2023-02-05T17:30:38.501Z,102498.13
2023-02-05T17:33:08.129Z,102500.75
2023-02-05T17:35:35.768Z,102498.13
2023-02-05T17:38:03.161Z,102499.88
2023-02-05T17:40:30.620Z,102495.50
2023-02-05T17:42:58.034Z,102499.88
2023-02-05T17:45:26.413Z,102501.66
2023-02-05T17:47:53.830Z,102450.81
2023-02-05T17:50:22.565Z,102486.78
2023-02-05T17:52:49.938Z,102519.25
2023-02-05T17:55:18.301Z,102496.47
2023-02-05T17:57:45.970Z,102533.31
2023-02-05T18:00:14.442Z,102535.97
2023-02-05T18:02:41.836Z,102529.81
2023-02-05T18:05:11.700Z,102531.53
2023-02-05T18:07:41.097Z,102538.59
2023-02-05T18:10:08.816Z,102543.88
2023-02-05T18:12:36.194Z,102538.59
2023-02-05T18:15:03.923Z,102544.75
2023-02-05T18:17:31.324Z,102553.53
2023-02-05T18:19:58.689Z,102556.19
2023-02-05T18:22:26.108Z,102561.47
2023-02-05T18:24:54.801Z,102557.06
2023-02-05T18:27:22.219Z,102546.53
2023-02-05T18:29:49.596Z,102546.53
2023-02-05T18:32:16.984Z,102545.63
2023-02-05T18:34:44.385Z,102559.72
2023-02-05T18:37:13.991Z,102547.41
2023-02-05T18:39:41.467Z,102564.09
2023-02-05T18:42:11.392Z,102575.53
2023-02-05T18:44:38.768Z,102573.78
2023-02-05T18:47:07.101Z,102582.56
2023-02-05T18:49:34.576Z,102588.75
2023-02-05T18:52:02.263Z,102572.91
2023-02-05T18:54:29.902Z,102575.56
2023-02-05T18:56:57.293Z,102566.75
2023-02-05T18:59:25.997Z,102580.84
2023-02-05T19:01:53.664Z,102582.56
2023-02-05T19:04:21.277Z,102589.59
2023-02-05T19:06:52.015Z,102605.44
2023-02-05T19:09:19.995Z,102604.56
2023-02-05T19:11:47.380Z,102604.56
2023-02-05T19:14:15.230Z,102610.72
2023-02-05T19:16:44.279Z,102617.75
2023-02-05T19:19:11.942Z,102621.28
2023-02-05T19:21:39.360Z,102615.13
2023-02-05T19:24:09.263Z,102618.63
2023-02-05T19:26:37.685Z,102624.81
2023-02-05T19:29:06.101Z,102626.56
2023-02-05T19:31:34.343Z,102636.25
2023-02-05T19:34:03.066Z,102628.31
2023-02-05T19:36:30.610Z,102623.91
2023-02-05T19:38:58.045Z,102548.47
2023-02-05T19:41:26.194Z,102630.06
2023-02-05T19:43:54.932Z,102563.38
2023-02-05T19:46:24.843Z,102626.56
2023-02-05T19:48:52.315Z,102580.97
2023-02-05T19:51:21.652Z,102638.00
2023-02-05T19:53:49.048Z,102638.00
2023-02-05T19:56:17.238Z,102623.09
2023-02-05T19:58:46.397Z,102628.38
2023-02-05T20:01:14.287Z,102660.84
2023-02-05T20:03:41.894Z,102612.59
2023-02-05T20:06:09.542Z,102667.94
2023-02-05T20:08:38.221Z,102667.03
2023-02-05T20:11:05.966Z,102663.50
2023-02-05T20:13:34.043Z,102603.84
2023-02-05T20:16:02.316Z,102673.19
2023-02-05T20:18:29.758Z,102682.88
2023-02-05T20:20:57.158Z,102603.84
2023-02-05T20:23:25.378Z,102687.25
2023-02-05T20:25:57.390Z,102672.31
2023-02-05T20:28:26.097Z,102678.47
2023-02-05T20:31:10.886Z,102678.47
2023-02-05T20:33:38.368Z,102610.84
2023-02-05T20:36:06.750Z,102678.47
2023-02-05T20:38:34.138Z,102674.03
2023-02-05T20:41:10.931Z,102667.94
2023-02-05T20:43:38.315Z,102684.59
2023-02-05T20:46:06.027Z,102689.03
2023-02-05T20:48:33.406Z,102684.59
2023-02-05T20:51:05.414Z,102687.25
2023-02-05T20:53:32.824Z,102687.25
2023-02-05T20:56:04.703Z,102683.75
2023-02-05T20:58:32.320Z,102688.13
2023-02-05T21:01:06.018Z,102692.53
2023-02-05T21:03:33.432Z,102703.06
2023-02-05T21:06:00.808Z,102698.69
2023-02-05T21:08:28.208Z,102699.59
2023-02-05T21:10:55.575Z,102700.44
2023-02-05T21:13:24.250Z,102694.31
2023-02-05T21:15:54.777Z,102622.31
2023-02-05T21:18:22.409Z,102697.81
2023-02-05T21:20:49.797Z,102701.34
2023-02-05T21:23:17.236Z,102703.09
2023-02-05T21:25:44.639Z,102703.09
2023-02-05T21:28:12.318Z,102702.22
2023-02-05T21:30:42.818Z,102707.50
2023-02-05T21:33:10.265Z,102715.41
2023-02-05T21:35:38.835Z,102714.53
2023-02-05T21:38:06.264Z,102713.63
2023-02-05T21:40:34.058Z,102667.09
2023-02-05T21:43:01.628Z,102696.06
2023-02-05T21:45:29.033Z,102713.63
2023-02-05T21:47:57.756Z,102711.91
2023-02-05T21:50:25.139Z,102713.63
2023-02-05T21:52:54.853Z,102721.56
2023-02-05T21:55:23.969Z,102659.22
2023-02-05T21:57:51.354Z,102733.91
2023-02-05T22:00:18.939Z,102739.16
2023-02-05T22:02:46.316Z,102746.19
2023-02-05T22:05:15.007Z,102751.47
2023-02-05T22:07:42.389Z,102755.84
2023-02-05T22:10:10.101Z,102760.28
2023-02-05T22:12:37.487Z,102757.63
2023-02-05T22:15:05.432Z,102762.91
2023-02-05T22:17:33.166Z,102759.38
2023-02-05T22:20:00.556Z,102766.41
2023-02-05T22:22:29.488Z,102765.56
2023-02-05T22:24:56.860Z,102765.56
2023-02-05T22:27:24.427Z,102674.16
2023-02-05T22:29:51.811Z,102795.44
2023-02-05T22:32:19.185Z,102782.25
2023-02-05T22:34:46.548Z,102774.34
2023-02-05T22:37:13.983Z,102780.50
2023-02-05T22:39:43.393Z,102779.59
2023-02-05T22:42:10.779Z,102776.13
2023-02-05T22:44:38.514Z,102770.84
2023-02-05T22:47:05.929Z,102782.25
2023-02-05T22:49:33.333Z,102776.97
2023-02-05T22:52:00.719Z,102785.78
2023-02-05T22:54:28.136Z,102774.34
2023-02-05T22:56:56.827Z,102780.50
2023-02-05T22:59:24.206Z,102774.34
2023-02-05T23:01:51.581Z,102756.75
2023-02-05T23:04:18.964Z,102751.47
2023-02-05T23:06:46.355Z,102755.00
2023-02-05T23:09:15.209Z,102763.78
2023-02-05T23:11:42.747Z,102753.22
2023-02-05T23:14:11.733Z,102653.97
2023-02-05T23:16:40.084Z,102753.22
2023-02-05T23:19:08.465Z,102749.72
2023-02-05T23:21:36.335Z,102693.47
2023-02-05T23:24:03.824Z,102670.66
2023-02-05T23:26:32.122Z,102675.91
2023-02-05T23:28:59.593Z,102749.72
2023-02-05T23:31:28.378Z,102758.50
2023-02-05T23:33:55.889Z,102764.66
2023-02-05T23:36:23.293Z,102769.06
2023-02-05T23:38:50.771Z,102696.13
2023-02-05T23:41:35.087Z,102763.78
2023-02-05T23:44:04.122Z,102762.91
2023-02-05T23:46:32.866Z,102673.31
2023-02-05T23:49:00.296Z,102762.03
2023-02-05T23:51:27.735Z,102762.91
2023-02-05T23:53:55.104Z,102767.31
2023-02-05T23:56:22.509Z,102759.38
2023-02-05T23:58:49.908Z,102766.41
